createdAt,value
2023-03-29T00:00:08.097Z,7.28
2023-03-29T00:02:35.630Z,7.36
2023-03-29T00:05:04.905Z,7.41
2023-03-29T00:07:33.814Z,7.36
2023-03-29T00:10:01.484Z,7.38
2023-03-29T00:12:29.281Z,7.26
2023-03-29T00:14:57.065Z,7.29
2023-03-29T00:17:24.697Z,7.40
2023-03-29T00:19:52.219Z,7.45
2023-03-29T00:22:21.383Z,7.36
2023-03-29T00:24:49.151Z,7.40
2023-03-29T00:27:17.320Z,7.29
2023-03-29T00:29:44.771Z,7.30
2023-03-29T00:32:13.031Z,7.20
2023-03-29T00:34:42.581Z,7.43
2023-03-29T00:37:10.524Z,7.58
2023-03-29T00:39:41.966Z,7.58
2023-03-29T00:42:12.676Z,7.70
2023-03-29T00:45:01.768Z,7.57
2023-03-29T00:47:32.236Z,7.70
2023-03-29T00:50:04.057Z,7.49
2023-03-29T00:52:33.087Z,7.18
2023-03-29T00:55:07.636Z,7.52
2023-03-29T00:57:35.690Z,7.54
2023-03-29T01:00:05.772Z,7.46
2023-03-29T01:02:35.331Z,7.42
2023-03-29T01:05:07.066Z,7.29
2023-03-29T01:07:39.498Z,7.23
2023-03-29T01:10:12.683Z,7.17
2023-03-29T01:12:45.393Z,7.30
2023-03-29T01:15:15.251Z,7.25
2023-03-29T01:17:50.003Z,7.19
2023-03-29T01:20:22.888Z,7.35
2023-03-29T01:23:05.299Z,7.32
2023-03-29T01:25:42.843Z,7.32
2023-03-29T01:28:15.650Z,7.37
2023-03-29T01:30:49.403Z,7.34
2023-03-29T01:33:23.314Z,7.40
2023-03-29T01:35:57.523Z,7.45
2023-03-29T01:38:28.986Z,7.37
2023-03-29T01:40:56.585Z,7.52
2023-03-29T01:43:32.364Z,7.48
2023-03-29T01:46:05.824Z,7.32
2023-03-29T01:48:42.477Z,7.35
2023-03-29T01:51:16.062Z,7.32
2023-03-29T01:53:48.445Z,7.37
2023-03-29T01:56:19.509Z,7.34
2023-03-29T01:58:52.568Z,7.42
2023-03-29T02:01:23.886Z,7.48
2023-03-29T02:03:57.493Z,7.57
2023-03-29T02:06:27.212Z,7.28
2023-03-29T02:08:55.603Z,7.43
2023-03-29T02:11:25.844Z,7.47
2023-03-29T02:13:54.697Z,7.58
2023-03-29T02:16:22.673Z,7.53
2023-03-29T02:18:53.154Z,7.46
2023-03-29T02:21:26.554Z,7.41
2023-03-29T02:23:57.203Z,7.41
2023-03-29T02:26:24.740Z,7.45
2023-03-29T02:28:54.069Z,7.47
2023-03-29T02:31:26.477Z,7.48
2023-03-29T02:34:00.313Z,7.49
2023-03-29T02:36:32.957Z,7.48
2023-03-29T02:39:04.464Z,7.47
2023-03-29T02:41:33.393Z,7.43
2023-03-29T02:44:05.008Z,7.59
2023-03-29T02:46:32.634Z,7.48
2023-03-29T02:49:01.024Z,7.71
2023-03-29T02:51:32.710Z,7.64
2023-03-29T02:54:03.943Z,7.68
2023-03-29T02:56:31.676Z,7.51
2023-03-29T02:58:59.088Z,7.52
2023-03-29T03:01:28.106Z,7.70
2023-03-29T03:03:55.669Z,7.71
2023-03-29T03:06:23.963Z,7.61
2023-03-29T03:08:51.454Z,7.81
2023-03-29T03:11:19.307Z,7.77
2023-03-29T03:13:46.754Z,7.65
2023-03-29T03:16:14.313Z,7.73
2023-03-29T03:18:43.896Z,7.83
2023-03-29T03:21:11.391Z,7.84
2023-03-29T03:23:38.830Z,7.85
2023-03-29T03:26:06.301Z,7.75
2023-03-29T03:28:34.160Z,7.60
2023-03-29T03:31:01.820Z,7.58
2023-03-29T03:33:29.524Z,7.80
2023-03-29T03:36:02.995Z,7.72
2023-03-29T03:38:30.949Z,7.91
2023-03-29T03:40:58.797Z,7.82
2023-03-29T03:43:26.910Z,7.82
2023-03-29T03:45:54.398Z,7.94
2023-03-29T03:48:22.933Z,7.94
2023-03-29T03:50:51.492Z,7.86
2023-03-29T03:53:21.130Z,7.70
2023-03-29T03:55:49.083Z,7.77
2023-03-29T03:58:16.626Z,7.79
2023-03-29T04:00:44.459Z,7.78
2023-03-29T04:03:12.443Z,7.98
2023-03-29T04:05:40.820Z,7.91
2023-03-29T04:08:08.922Z,7.93
2023-03-29T04:10:37.970Z,7.81
2023-03-29T04:13:06.107Z,7.75
2023-03-29T04:15:35.654Z,7.85
2023-03-29T04:18:03.171Z,7.91
2023-03-29T04:20:30.904Z,7.93
2023-03-29T04:22:58.377Z,8.02
2023-03-29T04:25:25.910Z,8.05
2023-03-29T04:27:54.719Z,7.89
2023-03-29T04:30:22.276Z,8.05
2023-03-29T04:32:49.820Z,8.01
2023-03-29T04:35:17.837Z,8.09
2023-03-29T04:37:45.352Z,8.10
2023-03-29T04:40:14.818Z,8.02
2023-03-29T04:42:44.246Z,8.18
2023-03-29T04:45:14.072Z,8.26
2023-03-29T04:47:43.439Z,8.14
2023-03-29T04:50:11.301Z,8.01
2023-03-29T04:52:39.202Z,8.00
2023-03-29T04:55:07.940Z,8.04
2023-03-29T04:57:35.459Z,7.99
2023-03-29T05:00:07.539Z,7.95
2023-03-29T05:02:36.678Z,7.92
2023-03-29T05:05:04.807Z,8.08
2023-03-29T05:07:32.224Z,8.14
2023-03-29T05:09:59.693Z,8.12
2023-03-29T05:12:27.123Z,8.11
2023-03-29T05:14:54.651Z,8.21
2023-03-29T05:17:22.454Z,8.24
2023-03-29T05:19:51.232Z,8.21
2023-03-29T05:22:20.095Z,8.15
2023-03-29T05:24:47.742Z,8.11
2023-03-29T05:27:15.205Z,8.20
2023-03-29T05:29:43.473Z,8.20
2023-03-29T05:32:11.242Z,8.08
2023-03-29T05:34:39.101Z,7.94
2023-03-29T05:37:08.150Z,7.85
2023-03-29T05:39:37.997Z,7.97
2023-03-29T05:42:06.220Z,7.89
2023-03-29T05:44:34.178Z,8.01
2023-03-29T05:47:01.857Z,8.02
2023-03-29T05:49:29.348Z,7.96
2023-03-29T05:51:56.995Z,8.00
2023-03-29T05:54:26.410Z,8.07
2023-03-29T05:56:53.940Z,7.93
2023-03-29T05:59:23.496Z,8.05
2023-03-29T06:01:51.864Z,8.14
2023-03-29T06:04:19.469Z,8.06
2023-03-29T06:06:48.487Z,8.17
2023-03-29T06:09:15.930Z,8.26
2023-03-29T06:11:45.018Z,8.21
2023-03-29T06:14:13.517Z,8.22
2023-03-29T06:16:42.807Z,8.34
2023-03-29T06:19:10.498Z,8.29
2023-03-29T06:21:38.013Z,8.26
2023-03-29T06:24:06.684Z,8.35
2023-03-29T06:26:34.192Z,8.26
2023-03-29T06:29:04.192Z,8.35
2023-03-29T06:31:31.883Z,8.38
2023-03-29T06:33:59.420Z,8.61
2023-03-29T06:36:26.873Z,8.67
2023-03-29T06:38:55.264Z,8.63
2023-03-29T06:41:23.772Z,8.85
2023-03-29T06:43:51.325Z,8.97
2023-03-29T06:46:20.252Z,8.89
2023-03-29T06:48:48.186Z,8.91
2023-03-29T06:51:15.843Z,9.01
2023-03-29T06:53:43.334Z,9.08
2023-03-29T06:56:11.119Z,9.12
2023-03-29T06:58:39.038Z,9.03
2023-03-29T07:01:07.429Z,8.99
2023-03-29T07:03:36.288Z,9.04
2023-03-29T07:06:09.823Z,9.07
2023-03-29T07:08:43.227Z,9.08
2023-03-29T07:11:13.155Z,9.13
2023-03-29T07:13:42.303Z,9.26
2023-03-29T07:16:12.479Z,9.29
2023-03-29T07:18:42.770Z,9.29
2023-03-29T07:21:11.576Z,9.25
2023-03-29T07:23:39.370Z,9.18
2023-03-29T07:26:07.998Z,9.27
2023-03-29T07:28:37.219Z,9.19
2023-03-29T07:31:06.662Z,9.17
2023-03-29T07:33:34.306Z,9.22
2023-03-29T07:36:03.385Z,9.28
2023-03-29T07:38:31.365Z,9.23
2023-03-29T07:40:59.048Z,9.21
2023-03-29T07:43:26.541Z,9.26
2023-03-29T07:45:54.150Z,9.19
2023-03-29T07:48:22.123Z,9.19
2023-03-29T07:50:49.619Z,9.22
2023-03-29T07:53:18.457Z,9.17
2023-03-29T07:55:49.021Z,9.23
2023-03-29T07:58:17.091Z,9.43
2023-03-29T08:00:44.606Z,9.32
2023-03-29T08:03:13.398Z,9.47
2023-03-29T08:05:42.062Z,9.46
2023-03-29T08:08:10.760Z,9.53
2023-03-29T08:10:40.039Z,9.51
2023-03-29T08:13:10.720Z,9.67
2023-03-29T08:15:39.836Z,9.76
2023-03-29T08:18:07.663Z,9.78
2023-03-29T08:20:35.370Z,9.79
2023-03-29T08:23:02.910Z,9.74
2023-03-29T08:25:30.812Z,9.87
2023-03-29T08:27:59.810Z,9.95
2023-03-29T08:30:27.351Z,9.95
2023-03-29T08:32:55.707Z,10.05
2023-03-29T08:35:23.372Z,10.00
2023-03-29T08:37:51.186Z,10.08
2023-03-29T08:40:22.580Z,9.94
2023-03-29T08:43:04.360Z,10.24
2023-03-29T08:45:38.691Z,10.20
2023-03-29T08:48:18.606Z,10.24
2023-03-29T08:50:53.756Z,10.14
2023-03-29T08:53:24.815Z,10.19
2023-03-29T08:55:56.511Z,10.39
2023-03-29T08:58:28.971Z,10.14
2023-03-29T09:00:58.800Z,10.24
2023-03-29T09:03:30.903Z,10.30
2023-03-29T09:06:03.104Z,10.43
2023-03-29T09:08:31.060Z,10.19
2023-03-29T09:11:35.113Z,10.05
2023-03-29T09:14:18.845Z,10.30
2023-03-29T09:16:54.052Z,10.33
2023-03-29T09:19:26.459Z,10.56
2023-03-29T09:22:02.838Z,10.61
2023-03-29T09:24:40.938Z,10.81
2023-03-29T09:27:11.718Z,10.70
2023-03-29T09:29:50.773Z,10.64
2023-03-29T09:32:23.219Z,10.78
2023-03-29T09:34:59.263Z,10.88
2023-03-29T09:37:33.155Z,10.82
2023-03-29T09:40:03.798Z,10.82
2023-03-29T09:42:32.666Z,10.78
2023-03-29T09:45:08.384Z,10.85
2023-03-29T09:47:39.807Z,10.83
2023-03-29T09:50:23.077Z,10.92
2023-03-29T09:52:57.482Z,10.97
2023-03-29T09:55:28.218Z,11.09
2023-03-29T09:57:58.963Z,11.26
2023-03-29T10:00:28.026Z,11.26
2023-03-29T10:02:59.910Z,11.24
2023-03-29T10:05:30.849Z,11.18
2023-03-29T10:08:01.088Z,11.35
2023-03-29T10:10:31.790Z,11.31
2023-03-29T10:13:03.978Z,11.24
2023-03-29T10:15:33.235Z,11.24
2023-03-29T10:18:03.285Z,11.44
2023-03-29T10:20:31.530Z,11.45
2023-03-29T10:23:00.169Z,11.42
2023-03-29T10:25:31.197Z,11.45
2023-03-29T10:28:07.404Z,11.56
2023-03-29T10:30:38.974Z,11.90
2023-03-29T10:33:08.926Z,11.99
2023-03-29T10:35:41.484Z,11.90
2023-03-29T10:38:14.931Z,11.98
2023-03-29T10:40:44.950Z,11.92
2023-03-29T10:43:14.433Z,12.12
2023-03-29T10:45:44.093Z,12.08
2023-03-29T10:48:14.900Z,12.15
2023-03-29T10:50:43.929Z,12.24
2023-03-29T10:53:17.548Z,12.22
2023-03-29T10:55:55.287Z,12.10
2023-03-29T10:58:35.548Z,12.24
2023-03-29T11:01:04.958Z,12.34
2023-03-29T11:03:49.643Z,12.50
2023-03-29T11:06:25.518Z,12.60
2023-03-29T11:08:57.726Z,12.53
2023-03-29T11:11:43.969Z,12.63
2023-03-29T11:14:22.989Z,12.63
2023-03-29T11:17:00.267Z,12.60
2023-03-29T11:19:52.732Z,12.71
2023-03-29T11:22:27.658Z,12.71
2023-03-29T11:25:10.960Z,12.93
2023-03-29T11:27:47.221Z,13.16
2023-03-29T11:30:23.762Z,13.34
2023-03-29T11:33:01.553Z,13.33
2023-03-29T11:35:44.540Z,13.56
2023-03-29T11:38:22.781Z,13.86
2023-03-29T11:40:57.552Z,13.94
2023-03-29T11:43:31.163Z,14.10
2023-03-29T11:46:04.396Z,14.41
2023-03-29T11:48:37.912Z,14.65
2023-03-29T11:51:14.011Z,14.84
2023-03-29T11:53:49.892Z,14.93
2023-03-29T11:56:23.333Z,14.98
2023-03-29T11:58:56.227Z,14.87
2023-03-29T12:01:32.366Z,14.85
2023-03-29T12:04:07.113Z,14.73
2023-03-29T12:06:42.248Z,15.11
2023-03-29T12:09:18.253Z,15.09
2023-03-29T12:11:51.820Z,15.31
2023-03-29T12:14:27.379Z,15.49
2023-03-29T12:17:00.865Z,15.58
2023-03-29T12:19:39.185Z,15.78
2023-03-29T12:22:10.510Z,15.22
2023-03-29T12:24:42.489Z,15.10
2023-03-29T12:27:23.937Z,15.45
2023-03-29T12:30:09.662Z,15.10
2023-03-29T12:32:49.905Z,15.13
2023-03-29T12:35:28.546Z,14.92
2023-03-29T12:38:08.190Z,14.81
2023-03-29T12:40:43.124Z,14.80
2023-03-29T12:43:20.740Z,14.68
2023-03-29T12:45:49.228Z,14.69
2023-03-29T12:48:19.546Z,14.47
2023-03-29T12:50:52.268Z,14.50
2023-03-29T12:53:24.156Z,14.51
2023-03-29T12:56:10.116Z,14.39
2023-03-29T12:58:43.585Z,14.52
2023-03-29T13:01:24.429Z,14.55
2023-03-29T13:03:57.350Z,14.51
2023-03-29T13:06:33.231Z,14.38
2023-03-29T13:09:20.193Z,14.28
2023-03-29T13:11:53.415Z,14.22
2023-03-29T13:14:22.912Z,14.26
2023-03-29T13:16:50.968Z,14.26
2023-03-29T13:19:31.910Z,14.32
2023-03-29T13:22:13.826Z,14.64
2023-03-29T13:25:01.124Z,14.91
2023-03-29T13:27:39.546Z,15.08
2023-03-29T13:30:24.777Z,15.18
2023-03-29T13:33:05.171Z,14.99
2023-03-29T13:35:46.006Z,15.28
2023-03-29T13:38:20.807Z,15.30
2023-03-29T13:41:00.728Z,15.47
2023-03-29T13:43:34.165Z,15.41
2023-03-29T13:46:23.032Z,15.35
2023-03-29T13:49:01.027Z,14.80
2023-03-29T13:51:35.197Z,14.91
2023-03-29T13:54:12.953Z,14.64
2023-03-29T13:56:56.123Z,14.86
2023-03-29T13:59:32.831Z,14.92
2023-03-29T14:02:02.804Z,14.95
2023-03-29T14:04:37.575Z,14.74
2023-03-29T14:07:07.390Z,14.94
2023-03-29T14:09:42.168Z,15.03
2023-03-29T14:12:12.263Z,15.08
2023-03-29T14:14:56.055Z,15.20
2023-03-29T14:17:26.573Z,15.32
2023-03-29T14:19:57.852Z,15.39
2023-03-29T14:22:25.625Z,15.46
2023-03-29T14:24:58.231Z,15.60
2023-03-29T14:27:25.980Z,15.76
2023-03-29T14:29:53.503Z,15.72
2023-03-29T14:32:29.720Z,15.57
2023-03-29T14:34:57.879Z,15.73
2023-03-29T14:37:28.510Z,15.80
2023-03-29T14:39:59.644Z,15.89
2023-03-29T14:42:29.219Z,15.91
2023-03-29T14:44:59.570Z,15.60
2023-03-29T14:47:30.102Z,15.50
2023-03-29T14:50:00.727Z,15.38
2023-03-29T14:52:30.293Z,14.97
2023-03-29T14:55:01.797Z,14.91
2023-03-29T14:57:35.061Z,14.95
2023-03-29T15:00:13.416Z,15.19
2023-03-29T15:02:50.860Z,15.30
2023-03-29T15:05:32.510Z,15.39
2023-03-29T15:08:01.327Z,15.41
2023-03-29T15:10:32.896Z,15.28
2023-03-29T15:13:03.159Z,15.51
2023-03-29T15:15:34.514Z,15.60
2023-03-29T15:18:03.434Z,15.62
2023-03-29T15:20:34.667Z,15.67
2023-03-29T15:23:04.552Z,15.61
2023-03-29T15:25:38.482Z,15.49
2023-03-29T15:28:06.311Z,15.52
2023-03-29T15:30:36.555Z,15.63
2023-03-29T15:33:17.770Z,15.58
2023-03-29T15:35:50.366Z,15.49
2023-03-29T15:38:18.046Z,15.57
2023-03-29T15:40:47.798Z,15.54
2023-03-29T15:43:15.557Z,15.52
2023-03-29T15:45:43.478Z,15.51
2023-03-29T15:48:16.272Z,15.53
2023-03-29T15:50:44.993Z,15.47
2023-03-29T15:53:15.597Z,15.36
2023-03-29T15:55:46.754Z,15.43
2023-03-29T15:58:18.879Z,15.46
2023-03-29T16:00:50.997Z,15.42
2023-03-29T16:03:18.628Z,15.28
2023-03-29T16:05:47.370Z,15.27
2023-03-29T16:08:15.844Z,15.34
2023-03-29T16:10:44.605Z,15.26
2023-03-29T16:13:14.327Z,15.06
2023-03-29T16:15:43.868Z,15.21
2023-03-29T16:18:11.339Z,14.94
2023-03-29T16:20:39.157Z,14.97
2023-03-29T16:23:09.270Z,15.02
2023-03-29T16:25:39.682Z,15.05
2023-03-29T16:28:08.893Z,14.92
2023-03-29T16:30:38.406Z,14.87
2023-03-29T16:33:08.437Z,14.77
2023-03-29T16:35:39.737Z,14.56
2023-03-29T16:38:08.537Z,14.45
2023-03-29T16:40:36.521Z,14.43
2023-03-29T16:43:04.505Z,14.25
2023-03-29T16:45:32.009Z,14.15
2023-03-29T16:47:59.779Z,14.14
2023-03-29T16:50:28.633Z,13.85
2023-03-29T16:52:56.185Z,13.61
2023-03-29T16:55:23.887Z,13.74
2023-03-29T16:57:51.771Z,13.62
2023-03-29T17:00:21.782Z,13.69
2023-03-29T17:02:50.488Z,13.78
2023-03-29T17:05:19.375Z,13.65
2023-03-29T17:07:48.193Z,13.75
2023-03-29T17:10:15.931Z,13.54
2023-03-29T17:12:43.396Z,13.76
2023-03-29T17:15:11.202Z,13.74
2023-03-29T17:17:38.820Z,13.56
2023-03-29T17:20:11.698Z,13.65
2023-03-29T17:22:39.312Z,13.49
2023-03-29T17:25:09.842Z,13.40
2023-03-29T17:27:38.262Z,13.69
2023-03-29T17:30:06.546Z,13.54
2023-03-29T17:32:34.109Z,13.40
2023-03-29T17:35:01.623Z,13.52
2023-03-29T17:37:29.232Z,13.44
2023-03-29T17:39:56.706Z,13.45
2023-03-29T17:42:25.810Z,13.29
2023-03-29T17:44:53.603Z,13.22
2023-03-29T17:47:21.061Z,13.28
2023-03-29T17:49:48.531Z,13.30
2023-03-29T17:52:16.025Z,13.39
2023-03-29T17:54:43.524Z,13.39
2023-03-29T17:57:11.001Z,13.48
2023-03-29T17:59:39.870Z,13.39
2023-03-29T18:02:07.817Z,13.38
2023-03-29T18:04:35.519Z,13.39
2023-03-29T18:07:02.997Z,13.39
2023-03-29T18:09:31.132Z,13.36
2023-03-29T18:11:58.628Z,13.41
2023-03-29T18:14:26.284Z,13.35
2023-03-29T18:16:55.696Z,13.35
2023-03-29T18:19:23.386Z,13.35
2023-03-29T18:21:50.975Z,13.41
2023-03-29T18:24:18.477Z,13.35
2023-03-29T18:26:45.937Z,13.39
2023-03-29T18:29:13.485Z,13.40
2023-03-29T18:31:40.979Z,13.43
2023-03-29T18:34:09.813Z,13.83
2023-03-29T18:36:37.464Z,14.06
2023-03-29T18:39:06.159Z,14.15
2023-03-29T18:41:34.702Z,14.16
2023-03-29T18:44:02.347Z,14.29
2023-03-29T18:46:31.120Z,14.39
2023-03-29T18:48:59.446Z,14.42
2023-03-29T18:51:29.144Z,14.47
2023-03-29T18:53:56.925Z,14.43
2023-03-29T18:56:24.488Z,14.45
2023-03-29T18:58:52.327Z,14.48
2023-03-29T19:01:19.812Z,14.44
2023-03-29T19:03:47.860Z,14.44
2023-03-29T19:06:15.846Z,14.42
2023-03-29T19:08:45.088Z,14.43
2023-03-29T19:11:14.171Z,14.41
2023-03-29T19:13:41.872Z,14.42
2023-03-29T19:16:09.617Z,14.37
2023-03-29T19:18:37.200Z,14.29
2023-03-29T19:21:04.706Z,14.31
2023-03-29T19:23:32.161Z,14.41
2023-03-29T19:26:03.295Z,14.38
2023-03-29T19:28:31.005Z,14.45
2023-03-29T19:31:00.954Z,14.44
2023-03-29T19:33:29.076Z,14.39
2023-03-29T19:35:56.676Z,14.42
2023-03-29T19:38:24.588Z,14.42
2023-03-29T19:40:53.072Z,14.37
2023-03-29T19:43:21.918Z,14.23
2023-03-29T19:45:50.905Z,14.37
2023-03-29T19:48:23.594Z,14.29
2023-03-29T19:50:52.199Z,14.31
2023-03-29T19:53:19.662Z,14.17
2023-03-29T19:55:48.597Z,14.14
2023-03-29T19:58:16.026Z,14.10
2023-03-29T20:00:45.039Z,14.08
2023-03-29T20:03:13.837Z,14.07
2023-03-29T20:05:41.786Z,14.15
2023-03-29T20:08:09.804Z,14.11
2023-03-29T20:10:37.428Z,14.05
2023-03-29T20:13:06.336Z,14.09
2023-03-29T20:15:33.777Z,13.98
2023-03-29T20:18:03.325Z,13.95
2023-03-29T20:20:31.640Z,13.91
2023-03-29T20:23:04.509Z,13.98
2023-03-29T20:25:32.829Z,14.05
2023-03-29T20:28:00.470Z,14.01
2023-03-29T20:30:28.209Z,14.08
2023-03-29T20:32:55.663Z,14.14
2023-03-29T20:35:24.445Z,13.96
2023-03-29T20:37:52.115Z,13.98
2023-03-29T20:40:20.705Z,14.04
2023-03-29T20:42:48.869Z,13.96
2023-03-29T20:45:19.185Z,13.97
2023-03-29T20:47:50.161Z,14.00
2023-03-29T20:50:19.953Z,14.05
2023-03-29T20:52:48.750Z,13.94
2023-03-29T20:55:21.984Z,14.00
2023-03-29T20:57:50.112Z,14.08
2023-03-29T21:00:19.558Z,14.07
2023-03-29T21:02:47.585Z,14.06
2023-03-29T21:05:15.627Z,14.05
2023-03-29T21:07:44.665Z,14.10
2023-03-29T21:10:13.625Z,14.03
2023-03-29T21:12:41.744Z,14.09
2023-03-29T21:15:10.306Z,13.99
2023-03-29T21:17:38.203Z,13.95
2023-03-29T21:20:11.012Z,14.07
2023-03-29T21:22:38.940Z,14.13
2023-03-29T21:25:08.035Z,14.00
2023-03-29T21:27:37.169Z,14.01
2023-03-29T21:30:05.321Z,14.08
2023-03-29T21:32:32.819Z,14.17
2023-03-29T21:35:00.342Z,14.12
2023-03-29T21:37:27.864Z,14.18
2023-03-29T21:39:55.282Z,14.13
2023-03-29T21:42:22.707Z,14.10
2023-03-29T21:44:51.560Z,14.06
2023-03-29T21:47:19.244Z,14.17
2023-03-29T21:49:46.716Z,14.12
2023-03-29T21:52:14.274Z,14.12
2023-03-29T21:54:41.835Z,13.99
2023-03-29T21:57:09.472Z,14.11
2023-03-29T21:59:37.030Z,14.13
2023-03-29T22:02:05.919Z,13.91
2023-03-29T22:04:37.096Z,13.99
2023-03-29T22:07:05.812Z,13.97
2023-03-29T22:09:34.563Z,13.84
2023-03-29T22:12:02.114Z,13.94
2023-03-29T22:14:30.278Z,13.99
2023-03-29T22:16:57.893Z,14.01
2023-03-29T22:19:26.760Z,13.91
2023-03-29T22:22:01.150Z,13.90
2023-03-29T22:24:29.192Z,13.97
2023-03-29T22:26:56.846Z,13.92
2023-03-29T22:29:24.388Z,13.85
2023-03-29T22:31:51.916Z,13.73
2023-03-29T22:34:19.378Z,13.75
2023-03-29T22:36:48.176Z,13.87
2023-03-29T22:39:15.841Z,13.72
2023-03-29T22:41:43.297Z,13.75
2023-03-29T22:44:10.868Z,13.76
2023-03-29T22:46:38.513Z,13.75
2023-03-29T22:49:06.109Z,13.82
2023-03-29T22:51:33.583Z,13.89
2023-03-29T22:54:02.392Z,13.87
2023-03-29T22:56:29.873Z,13.78
2023-03-29T22:58:57.369Z,13.83
2023-03-29T23:01:24.987Z,13.79
2023-03-29T23:03:52.513Z,13.79
2023-03-29T23:06:20.335Z,13.80
2023-03-29T23:08:47.771Z,13.69
2023-03-29T23:11:16.578Z,13.70
2023-03-29T23:13:44.038Z,13.78
2023-03-29T23:16:11.549Z,13.75
2023-03-29T23:18:39.101Z,13.77
2023-03-29T23:21:08.743Z,13.78
2023-03-29T23:23:36.826Z,13.88
2023-03-29T23:26:04.566Z,13.79
2023-03-29T23:28:34.289Z,13.88
2023-03-29T23:31:04.415Z,13.91
2023-03-29T23:33:34.896Z,13.89
2023-03-29T23:36:04.250Z,13.85
2023-03-29T23:38:33.061Z,13.77
2023-03-29T23:41:02.364Z,13.84
2023-03-29T23:43:32.434Z,13.83
2023-03-29T23:46:02.972Z,13.79
2023-03-29T23:48:31.518Z,13.83
2023-03-29T23:50:59.229Z,13.85
2023-03-29T23:53:28.468Z,13.88
2023-03-29T23:55:58.079Z,13.88
2023-03-29T23:58:25.569Z,13.89
